createdAt,value
2017-12-02T00:02:13.457Z,98319.03
2017-12-02T00:04:40.954Z,98325.50
2017-12-02T00:07:08.477Z,98317.00
2017-12-02T00:09:35.976Z,98320.81
2017-12-02T00:12:03.461Z,98326.66
2017-12-02T00:14:30.959Z,98322.74
2017-12-02T00:16:58.464Z,98326.77
2017-12-02T00:19:25.968Z,98330.62
2017-12-02T00:21:53.471Z,98326.94
2017-12-02T00:24:20.982Z,98338.65
2017-12-02T00:26:48.487Z,98340.34
2017-12-02T00:29:15.978Z,98343.81
2017-12-02T00:31:43.521Z,98344.37
2017-12-02T00:34:11.031Z,98344.53
2017-12-02T00:36:38.525Z,98343.62
2017-12-02T00:39:06.038Z,98342.55
2017-12-02T00:41:33.551Z,98340.70
2017-12-02T00:44:01.065Z,98355.63
2017-12-02T00:46:28.592Z,98355.22
2017-12-02T00:48:56.238Z,98352.16
2017-12-02T00:51:23.741Z,98360.39
2017-12-02T00:53:51.237Z,98358.05
2017-12-02T00:56:19.202Z,98365.59
2017-12-02T00:58:46.693Z,98369.43
2017-12-02T01:01:14.215Z,98369.16
2017-12-02T01:03:41.733Z,98370.30
2017-12-02T01:06:09.270Z,98370.13
2017-12-02T01:08:36.769Z,98374.56
2017-12-02T01:11:04.260Z,98382.31
2017-12-02T01:13:31.765Z,98383.84
2017-12-02T01:15:59.278Z,98380.03
2017-12-02T01:18:26.800Z,98380.42
2017-12-02T01:20:54.294Z,98387.70
2017-12-02T01:23:21.790Z,98389.33
2017-12-02T01:25:49.287Z,98383.97
2017-12-02T01:28:16.804Z,98381.03
2017-12-02T01:30:44.314Z,98393.13
2017-12-02T01:33:11.836Z,98398.63
2017-12-02T01:35:39.418Z,98405.44
2017-12-02T01:38:06.941Z,98407.80
2017-12-02T01:40:34.476Z,98403.06
2017-12-02T01:43:02.018Z,98405.05
2017-12-02T01:45:29.556Z,98409.98
2017-12-02T01:47:57.077Z,98405.89
2017-12-02T01:50:24.590Z,98404.77
2017-12-02T01:52:52.109Z,98412.00
2017-12-02T01:55:19.621Z,98415.77
2017-12-02T01:57:47.128Z,98412.42
2017-12-02T02:00:14.638Z,98410.94
2017-12-02T02:02:42.161Z,98408.98
2017-12-02T02:05:09.685Z,98413.19
2017-12-02T02:07:37.184Z,98420.14
2017-12-02T02:10:04.790Z,98416.29
2017-12-02T02:12:32.317Z,98423.67
2017-12-02T02:14:59.822Z,98422.36
2017-12-02T02:17:27.328Z,98426.03
2017-12-02T02:19:54.849Z,98423.30
2017-12-02T02:22:22.381Z,98427.45
2017-12-02T02:24:49.894Z,98426.33
2017-12-02T02:27:17.423Z,98429.19
2017-12-02T02:29:44.939Z,98432.56
2017-12-02T02:32:12.474Z,98433.25
2017-12-02T02:34:40.007Z,98437.34
2017-12-02T02:37:07.524Z,98436.45
2017-12-02T02:39:35.038Z,98434.91
2017-12-02T02:42:02.557Z,98447.34
2017-12-02T02:44:30.078Z,98455.68
2017-12-02T02:46:57.598Z,98456.61
2017-12-02T02:49:25.125Z,98454.27
2017-12-02T02:51:52.629Z,98457.50
2017-12-02T02:54:20.239Z,98463.93
2017-12-02T02:56:47.747Z,98465.33
2017-12-02T02:59:15.254Z,98466.77
2017-12-02T03:01:42.763Z,98472.36
2017-12-02T03:04:10.305Z,98469.63
2017-12-02T03:06:37.827Z,98469.52
2017-12-02T03:09:05.339Z,98464.71
2017-12-02T03:11:32.928Z,98468.36
2017-12-02T03:14:00.439Z,98464.61
2017-12-02T03:16:27.948Z,98476.34
2017-12-02T03:18:55.464Z,98472.16
2017-12-02T03:21:22.989Z,98473.16
2017-12-02T03:23:50.490Z,98467.65
2017-12-02T03:26:18.259Z,98476.11
2017-12-02T03:28:45.780Z,98471.75
2017-12-02T03:31:13.306Z,98470.86
2017-12-02T03:33:40.858Z,98472.65
2017-12-02T03:36:08.362Z,98463.83
2017-12-02T03:38:35.860Z,98471.63
2017-12-02T03:41:03.394Z,98477.94
2017-12-02T03:43:30.895Z,98479.64
2017-12-02T03:45:58.406Z,98481.69
2017-12-02T03:48:25.923Z,98485.06
2017-12-02T03:50:53.433Z,98480.80
2017-12-02T03:53:22.483Z,98480.35
2017-12-02T03:55:49.989Z,98484.69
2017-12-02T03:58:17.530Z,98482.67
2017-12-02T04:00:45.042Z,98486.84
2017-12-02T04:03:12.554Z,98487.17
2017-12-02T04:05:40.069Z,98488.22
2017-12-02T04:08:07.592Z,98494.50
2017-12-02T04:10:35.107Z,98491.69
2017-12-02T04:13:02.609Z,98487.08
2017-12-02T04:15:30.151Z,98495.29
2017-12-02T04:17:57.650Z,98492.83
2017-12-02T04:20:25.151Z,98502.08
2017-12-02T04:22:52.677Z,98505.17
2017-12-02T04:25:20.201Z,98497.75
2017-12-02T04:27:47.710Z,98507.23
2017-12-02T04:30:15.261Z,98516.65
2017-12-02T04:32:42.800Z,98520.97
2017-12-02T04:35:10.314Z,98519.98
2017-12-02T04:37:37.817Z,98519.77
2017-12-02T04:40:05.340Z,98523.53
2017-12-02T04:42:32.869Z,98530.77
2017-12-02T04:45:00.485Z,98534.89
2017-12-02T04:47:27.996Z,98537.23
2017-12-02T04:49:56.711Z,98537.50
2017-12-02T04:52:24.365Z,98538.17
2017-12-02T04:54:51.882Z,98544.45
2017-12-02T04:57:19.385Z,98540.89
2017-12-02T04:59:46.916Z,98548.72
2017-12-02T05:02:14.429Z,98556.12
2017-12-02T05:04:41.946Z,98560.94
2017-12-02T05:07:09.462Z,98565.67
2017-12-02T05:09:36.973Z,98569.06
2017-12-02T05:12:04.474Z,98571.81
2017-12-02T05:14:31.977Z,98570.29
2017-12-02T05:16:59.481Z,98578.30
2017-12-02T05:19:26.994Z,98582.31
2017-12-02T05:21:54.514Z,98588.85
2017-12-02T05:24:22.017Z,98583.69
2017-12-02T05:26:49.527Z,98589.75
2017-12-02T05:29:17.035Z,98596.39
2017-12-02T05:31:44.568Z,98599.95
2017-12-02T05:34:12.069Z,98599.23
2017-12-02T05:36:39.592Z,98608.52
2017-12-02T05:39:07.107Z,98602.67
2017-12-02T05:41:34.615Z,98599.83
2017-12-02T05:44:02.138Z,98602.13
2017-12-02T05:46:29.677Z,98602.64
2017-12-02T05:48:57.182Z,98606.74
2017-12-02T05:51:24.689Z,98616.22
2017-12-02T05:53:52.195Z,98620.20
2017-12-02T05:56:20.316Z,98625.08
2017-12-02T05:58:47.812Z,98634.32
2017-12-02T06:01:15.409Z,98633.59
2017-12-02T06:03:43.719Z,98638.10
2017-12-02T06:06:11.302Z,98640.38
2017-12-02T06:08:38.794Z,98652.27
2017-12-02T06:11:06.332Z,98653.20
2017-12-02T06:13:33.847Z,98654.63
2017-12-02T06:16:01.365Z,98654.91
2017-12-02T06:18:28.857Z,98666.23
2017-12-02T06:20:56.372Z,98669.09
2017-12-02T06:23:23.897Z,98674.68
2017-12-02T06:25:51.401Z,98675.55
2017-12-02T06:28:18.899Z,98666.78
2017-12-02T06:30:46.423Z,98661.55
2017-12-02T06:33:13.944Z,98663.22
2017-12-02T06:35:41.468Z,98656.31
2017-12-02T06:38:08.999Z,98665.16
2017-12-02T06:40:36.508Z,98666.53
2017-12-02T06:43:04.082Z,98666.23
2017-12-02T06:45:31.598Z,98656.02
2017-12-02T06:47:59.100Z,98659.98
2017-12-02T06:50:26.628Z,98663.39
2017-12-02T06:52:54.142Z,98670.09
2017-12-02T06:55:21.654Z,98669.88
2017-12-02T06:57:49.180Z,98672.16
2017-12-02T07:00:16.701Z,98666.52
2017-12-02T07:02:44.217Z,98664.71
2017-12-02T07:05:11.796Z,98667.34
2017-12-02T07:07:39.317Z,98673.86
2017-12-02T07:10:06.825Z,98669.92
2017-12-02T07:12:34.335Z,98664.19
2017-12-02T07:15:01.850Z,98672.59
2017-12-02T07:17:29.389Z,98668.70
2017-12-02T07:19:56.918Z,98666.75
2017-12-02T07:22:24.446Z,98666.68
2017-12-02T07:24:51.953Z,98674.84
2017-12-02T07:27:19.489Z,98673.26
2017-12-02T07:29:46.990Z,98679.32
2017-12-02T07:32:14.501Z,98683.58
2017-12-02T07:34:42.012Z,98677.98
2017-12-02T07:37:09.527Z,98679.70
2017-12-02T07:39:37.109Z,98678.59
2017-12-02T07:42:04.608Z,98681.64
2017-12-02T07:44:32.115Z,98684.08
2017-12-02T07:46:59.652Z,98674.27
2017-12-02T07:49:27.166Z,98680.91
2017-12-02T07:51:54.696Z,98680.95
2017-12-02T07:54:22.306Z,98685.22
2017-12-02T07:56:49.817Z,98687.15
2017-12-02T07:59:17.345Z,98687.41
2017-12-02T08:01:44.863Z,98690.44
2017-12-02T08:04:12.377Z,98686.09
2017-12-02T08:06:39.942Z,98685.94
2017-12-02T08:09:07.477Z,98692.09
2017-12-02T08:11:34.967Z,98700.00
2017-12-02T08:14:02.474Z,98693.94
2017-12-02T08:16:29.985Z,98701.02
2017-12-02T08:18:57.491Z,98707.08
2017-12-02T08:21:24.980Z,98710.03
2017-12-02T08:23:52.510Z,98706.58
2017-12-02T08:26:20.916Z,98700.15
2017-12-02T08:28:48.464Z,98700.44
2017-12-02T08:34:51.433Z,98709.98
2017-12-02T08:37:18.935Z,98714.95
2017-12-02T08:39:46.485Z,98712.89
2017-12-02T08:42:13.994Z,98719.45
2017-12-02T08:44:41.538Z,98717.44
2017-12-02T08:47:09.053Z,98721.33
2017-12-02T08:49:36.583Z,98724.70
2017-12-02T08:52:04.101Z,98719.08
2017-12-02T08:54:31.618Z,98727.72
2017-12-02T08:56:59.139Z,98728.77
2017-12-02T08:59:26.647Z,98727.94
2017-12-02T09:01:54.158Z,98723.10
2017-12-02T09:04:21.650Z,98736.22
2017-12-02T09:06:49.146Z,98738.95
2017-12-02T09:09:16.664Z,98744.72
2017-12-02T09:11:44.174Z,98750.25
2017-12-02T09:14:11.674Z,98751.86
2017-12-02T09:16:39.184Z,98754.01
2017-12-02T09:19:06.694Z,98760.82
2017-12-02T09:21:34.220Z,98759.52
2017-12-02T09:24:01.737Z,98764.00
2017-12-02T09:26:29.252Z,98762.08
2017-12-02T09:28:57.953Z,98767.98
2017-12-02T09:31:25.449Z,98774.78
2017-12-02T09:33:52.953Z,98783.58
2017-12-02T09:36:20.475Z,98780.02
2017-12-02T09:38:47.998Z,98782.66
2017-12-02T09:41:15.494Z,98782.03
2017-12-02T09:43:43.012Z,98783.12
2017-12-02T09:46:10.517Z,98783.44
2017-12-02T09:48:38.081Z,98784.62
2017-12-02T09:51:05.621Z,98784.48
2017-12-02T09:53:33.139Z,98783.23
2017-12-02T09:56:00.645Z,98784.83
2017-12-02T09:58:28.148Z,98776.79
2017-12-02T10:00:55.672Z,98772.98
2017-12-02T10:03:23.194Z,98769.19
2017-12-02T10:05:50.697Z,98770.08
2017-12-02T10:08:18.235Z,98758.25
2017-12-02T10:10:45.803Z,98758.66
2017-12-02T10:13:13.309Z,98748.95
2017-12-02T10:15:40.817Z,98749.39
2017-12-02T10:18:08.322Z,98750.66
2017-12-02T10:20:35.840Z,98746.35
2017-12-02T10:23:03.373Z,98748.23
2017-12-02T10:25:30.930Z,98745.83
2017-12-02T10:27:58.529Z,98747.30
2017-12-02T10:30:26.040Z,98747.91
2017-12-02T10:32:53.574Z,98746.56
2017-12-02T10:35:21.077Z,98740.53
2017-12-02T10:37:48.585Z,98739.28
2017-12-02T10:40:16.092Z,98742.51
2017-12-02T10:42:43.613Z,98744.20
2017-12-02T10:45:11.121Z,98744.61
2017-12-02T10:47:38.640Z,98742.43
2017-12-02T10:50:06.148Z,98734.52
2017-12-02T10:52:33.659Z,98738.52
2017-12-02T10:55:01.213Z,98739.36
2017-12-02T10:57:28.705Z,98741.33
2017-12-02T10:59:56.213Z,98732.95
2017-12-02T11:02:23.723Z,98736.38
2017-12-02T11:04:51.252Z,98733.64
2017-12-02T11:07:18.805Z,98727.25
2017-12-02T11:09:46.339Z,98721.52
2017-12-02T11:12:13.869Z,98727.96
2017-12-02T11:14:41.370Z,98715.52
2017-12-02T11:17:08.871Z,98711.55
2017-12-02T11:19:36.400Z,98709.08
2017-12-02T11:22:03.984Z,98710.81
2017-12-02T11:24:31.446Z,98704.82
2017-12-02T11:26:58.953Z,98717.86
2017-12-02T11:29:26.481Z,98713.47
2017-12-02T11:31:54.004Z,98719.16
2017-12-02T11:34:21.517Z,98726.34
2017-12-02T11:36:49.062Z,98726.16
2017-12-02T11:39:16.566Z,98726.19
2017-12-02T11:41:44.179Z,98732.36
2017-12-02T11:44:11.685Z,98728.25
2017-12-02T11:46:39.209Z,98725.75
2017-12-02T11:49:06.701Z,98721.73
2017-12-02T11:51:34.227Z,98726.64
2017-12-02T11:54:01.738Z,98716.02
2017-12-02T11:56:29.326Z,98717.83
2017-12-02T11:58:56.817Z,98714.56
2017-12-02T12:01:24.357Z,98715.63
2017-12-02T12:03:51.855Z,98714.26
2017-12-02T12:06:19.360Z,98713.09
2017-12-02T12:08:46.876Z,98709.58
2017-12-02T12:11:14.389Z,98709.25
2017-12-02T12:13:41.885Z,98712.16
2017-12-02T12:16:10.388Z,98712.61
2017-12-02T12:18:37.908Z,98710.55
2017-12-02T12:21:05.517Z,98707.20
2017-12-02T12:23:33.018Z,98705.71
2017-12-02T12:26:00.707Z,98703.45
2017-12-02T12:28:28.204Z,98712.20
2017-12-02T12:30:55.779Z,98716.97
2017-12-02T12:33:23.312Z,98716.02
2017-12-02T12:35:50.820Z,98716.92
2017-12-02T12:38:18.316Z,98708.23
2017-12-02T12:40:45.849Z,98714.02
2017-12-02T12:43:13.367Z,98717.11
2017-12-02T12:45:40.893Z,98716.11
2017-12-02T12:48:08.404Z,98712.80
2017-12-02T12:50:35.922Z,98714.94
2017-12-02T12:53:03.436Z,98712.52
2017-12-02T12:55:30.956Z,98708.38
2017-12-02T12:57:58.486Z,98709.62
2017-12-02T13:00:26.878Z,98709.83
2017-12-02T13:02:54.424Z,98712.39
2017-12-02T13:05:21.932Z,98713.68
2017-12-02T13:07:49.549Z,98712.67
2017-12-02T13:10:17.055Z,98708.57
2017-12-02T13:12:44.559Z,98704.27
2017-12-02T13:15:12.076Z,98703.09
2017-12-02T13:17:39.573Z,98699.34
2017-12-02T13:20:07.075Z,98713.51
2017-12-02T13:22:34.627Z,98723.02
2017-12-02T13:25:02.137Z,98716.89
2017-12-02T13:27:29.649Z,98719.39
2017-12-02T13:29:57.176Z,98722.73
2017-12-02T13:32:24.700Z,98720.92
2017-12-02T13:34:52.205Z,98717.75
2017-12-02T13:37:19.713Z,98716.73
2017-12-02T13:39:47.255Z,98721.34
2017-12-02T13:42:14.890Z,98714.73
2017-12-02T13:44:42.406Z,98714.66
2017-12-02T13:47:09.914Z,98724.20
2017-12-02T13:49:37.566Z,98726.27
2017-12-02T13:52:05.067Z,98718.57
2017-12-02T13:54:32.608Z,98723.69
2017-12-02T13:57:00.114Z,98732.38
2017-12-02T13:59:27.639Z,98736.73
2017-12-02T14:01:55.153Z,98731.59
2017-12-02T14:04:22.660Z,98728.69
2017-12-02T14:06:50.157Z,98736.58
2017-12-02T14:09:17.678Z,98734.64
2017-12-02T14:11:45.217Z,98731.42
2017-12-02T14:14:12.731Z,98733.09
2017-12-02T14:16:40.236Z,98735.63
2017-12-02T14:19:07.750Z,98735.77
2017-12-02T14:21:35.285Z,98748.58
2017-12-02T14:24:02.785Z,98743.16
2017-12-02T14:26:30.305Z,98739.61
2017-12-02T14:28:57.811Z,98738.45
2017-12-02T14:31:25.334Z,98741.37
2017-12-02T14:33:52.842Z,98751.34
2017-12-02T14:36:20.360Z,98758.23
2017-12-02T14:38:47.882Z,98755.41
2017-12-02T14:41:15.401Z,98757.94
2017-12-02T14:43:42.920Z,98763.73
2017-12-02T14:46:10.430Z,98762.95
2017-12-02T14:48:37.945Z,98766.45
2017-12-02T14:51:05.473Z,98774.66
2017-12-02T14:53:33.085Z,98775.48
2017-12-02T14:56:00.607Z,98775.56
2017-12-02T14:58:28.127Z,98785.27
2017-12-02T15:00:55.638Z,98781.23
2017-12-02T15:03:23.132Z,98789.21
2017-12-02T15:05:50.656Z,98791.73
2017-12-02T15:08:18.149Z,98795.08
2017-12-02T15:10:45.652Z,98791.65
2017-12-02T15:13:13.196Z,98785.70
2017-12-02T15:15:40.717Z,98790.84
2017-12-02T15:18:08.367Z,98791.09
2017-12-02T15:20:35.917Z,98803.07
2017-12-02T15:23:03.468Z,98795.20
2017-12-02T15:25:31.010Z,98798.98
2017-12-02T15:27:58.540Z,98796.53
2017-12-02T15:30:26.096Z,98801.05
2017-12-02T15:32:53.609Z,98801.98
2017-12-02T15:35:21.153Z,98806.85
2017-12-02T15:37:48.749Z,98804.09
2017-12-02T15:40:16.252Z,98807.62
2017-12-02T15:42:43.771Z,98811.30
2017-12-02T15:45:11.301Z,98805.17
2017-12-02T15:47:38.822Z,98813.14
2017-12-02T15:50:07.043Z,98814.09
2017-12-02T15:52:34.554Z,98813.42
2017-12-02T15:55:02.072Z,98811.55
2017-12-02T15:57:29.604Z,98816.50
2017-12-02T15:59:57.107Z,98815.77
2017-12-02T16:02:24.634Z,98817.59
2017-12-02T16:04:52.137Z,98814.88
2017-12-02T16:07:19.641Z,98815.49
2017-12-02T16:09:47.210Z,98819.86
2017-12-02T16:12:14.748Z,98808.00
2017-12-02T16:14:42.275Z,98809.97
2017-12-02T16:17:09.779Z,98811.17
2017-12-02T16:19:37.278Z,98810.53
2017-12-02T16:22:04.778Z,98811.09
2017-12-02T16:24:32.622Z,98819.34
2017-12-02T16:27:00.145Z,98812.73
2017-12-02T16:29:27.657Z,98818.34
2017-12-02T16:31:55.258Z,98815.59
2017-12-02T16:34:22.936Z,98813.44
2017-12-02T16:36:50.459Z,98821.18
2017-12-02T16:39:17.971Z,98816.77
2017-12-02T16:41:45.521Z,98819.44
2017-12-02T16:44:13.047Z,98818.58
2017-12-02T16:46:40.554Z,98829.98
2017-12-02T16:49:08.085Z,98828.29
2017-12-02T16:51:35.623Z,98823.94
2017-12-02T16:54:03.129Z,98829.98
2017-12-02T16:56:30.641Z,98832.60
2017-12-02T16:58:58.245Z,98825.45
2017-12-02T17:01:25.920Z,98830.34
2017-12-02T17:03:54.239Z,98831.82
2017-12-02T17:06:21.819Z,98837.77
2017-12-02T17:08:49.677Z,98841.03
2017-12-02T17:11:17.192Z,98835.45
2017-12-02T17:13:44.719Z,98831.05
2017-12-02T17:16:12.339Z,98831.54
2017-12-02T17:18:39.859Z,98825.16
2017-12-02T17:21:07.481Z,98828.70
2017-12-02T17:23:35.015Z,98830.44
2017-12-02T17:26:02.580Z,98827.57
2017-12-02T17:28:30.080Z,98836.20
2017-12-02T17:30:57.622Z,98838.00
2017-12-02T17:33:25.119Z,98846.34
2017-12-02T17:35:52.663Z,98841.70
2017-12-02T17:38:20.182Z,98843.86
2017-12-02T17:40:47.675Z,98845.83
2017-12-02T17:43:15.177Z,98838.95
2017-12-02T17:45:42.695Z,98848.45
2017-12-02T17:48:17.020Z,98843.37
2017-12-02T17:50:44.573Z,98843.89
2017-12-02T17:53:12.076Z,98843.09
2017-12-02T17:55:39.611Z,98842.37
2017-12-02T17:58:07.119Z,98839.14
2017-12-02T18:00:34.632Z,98834.46
2017-12-02T18:03:02.144Z,98842.44
2017-12-02T18:05:29.663Z,98840.70
2017-12-02T18:07:57.188Z,98839.25
2017-12-02T18:10:24.705Z,98838.64
2017-12-02T18:12:52.208Z,98832.64
2017-12-02T18:15:19.836Z,98834.44
2017-12-02T18:17:47.470Z,98835.00
2017-12-02T18:20:14.978Z,98835.01
2017-12-02T18:22:42.505Z,98843.39
2017-12-02T18:25:10.006Z,98841.27
2017-12-02T18:27:37.570Z,98843.23
2017-12-02T18:30:05.082Z,98850.70
2017-12-02T18:32:32.598Z,98850.60
2017-12-02T18:35:00.078Z,98857.23
2017-12-02T18:37:27.582Z,98854.62
2017-12-02T18:39:55.088Z,98851.41
2017-12-02T18:42:22.596Z,98853.83
2017-12-02T18:44:50.087Z,98856.49
2017-12-02T18:47:17.614Z,98858.52
2017-12-02T18:49:45.138Z,98863.05
2017-12-02T18:52:12.635Z,98862.55
2017-12-02T18:54:40.141Z,98862.83
2017-12-02T18:57:07.669Z,98872.86
2017-12-02T18:59:35.197Z,98872.33
2017-12-02T19:02:02.786Z,98875.07
2017-12-02T19:04:30.292Z,98876.32
2017-12-02T19:06:57.804Z,98881.45
2017-12-02T19:09:25.351Z,98886.36
2017-12-02T19:11:52.874Z,98882.63
2017-12-02T19:14:20.380Z,98890.34
2017-12-02T19:16:47.888Z,98882.69
2017-12-02T19:19:15.400Z,98887.09
2017-12-02T19:21:42.920Z,98888.66
2017-12-02T19:24:10.448Z,98889.25
2017-12-02T19:26:37.959Z,98888.27
2017-12-02T19:29:05.512Z,98892.80
2017-12-02T19:31:33.050Z,98904.55
2017-12-02T19:34:00.556Z,98909.51
2017-12-02T19:36:28.116Z,98902.61
2017-12-02T19:38:55.629Z,98912.73
2017-12-02T19:41:23.189Z,98920.62
2017-12-02T19:43:50.705Z,98913.09
2017-12-02T19:46:18.207Z,98914.98
2017-12-02T19:48:45.720Z,98908.59
2017-12-02T19:51:13.267Z,98909.59
2017-12-02T19:53:40.769Z,98906.34
2017-12-02T19:56:08.288Z,98903.74
2017-12-02T19:58:35.811Z,98901.62
2017-12-02T20:01:03.314Z,98903.67
2017-12-02T20:03:30.839Z,98910.53
2017-12-02T20:05:58.458Z,98912.80
2017-12-02T20:08:25.977Z,98914.74
2017-12-02T20:10:53.476Z,98914.31
2017-12-02T20:13:20.989Z,98912.28
2017-12-02T20:15:48.510Z,98912.59
2017-12-02T20:18:16.041Z,98904.86
2017-12-02T20:20:43.543Z,98912.61
2017-12-02T20:23:11.054Z,98909.42
2017-12-02T20:25:38.652Z,98918.37
2017-12-02T20:28:06.260Z,98911.05
2017-12-02T20:30:33.782Z,98908.97
2017-12-02T20:33:01.303Z,98907.99
2017-12-02T20:35:28.948Z,98907.05
2017-12-02T20:37:56.480Z,98912.73
2017-12-02T20:40:23.989Z,98906.94
2017-12-02T20:42:51.535Z,98908.45
2017-12-02T20:45:19.058Z,98911.47
2017-12-02T20:47:46.590Z,98900.96
2017-12-02T20:50:14.091Z,98909.67
2017-12-02T20:52:41.613Z,98915.58
2017-12-02T20:55:09.125Z,98912.45
2017-12-02T20:57:36.632Z,98912.36
2017-12-02T21:00:04.299Z,98912.27
2017-12-02T21:02:31.806Z,98915.32
2017-12-02T21:04:59.329Z,98912.09
2017-12-02T21:07:26.875Z,98909.23
2017-12-02T21:09:54.390Z,98913.00
2017-12-02T21:12:21.922Z,98912.25
2017-12-02T21:14:49.440Z,98909.72
2017-12-02T21:17:17.075Z,98908.31
2017-12-02T21:19:44.585Z,98905.70
2017-12-02T21:22:12.114Z,98904.06
2017-12-02T21:24:39.628Z,98901.98
2017-12-02T21:27:07.142Z,98900.75
2017-12-02T21:29:34.655Z,98908.39
2017-12-02T21:32:02.194Z,98910.61
2017-12-02T21:34:29.698Z,98903.08
2017-12-02T21:36:57.224Z,98903.28
2017-12-02T21:39:24.720Z,98903.30
2017-12-02T21:41:52.230Z,98905.24
2017-12-02T21:44:19.747Z,98903.34
2017-12-02T21:46:47.249Z,98902.69
2017-12-02T21:49:14.754Z,98893.67
2017-12-02T21:51:42.250Z,98900.58
2017-12-02T21:54:09.787Z,98897.29
2017-12-02T21:56:37.311Z,98902.63
2017-12-02T21:59:04.809Z,98909.23
2017-12-02T22:01:32.313Z,98905.39
2017-12-02T22:03:59.819Z,98903.97
2017-12-02T22:06:27.342Z,98902.64
2017-12-02T22:08:54.855Z,98893.94
2017-12-02T22:11:22.354Z,98893.88
2017-12-02T22:13:49.884Z,98890.98
2017-12-02T22:16:17.409Z,98884.53
2017-12-02T22:18:44.925Z,98885.07
2017-12-02T22:21:12.448Z,98884.71
2017-12-02T22:23:39.956Z,98885.72
2017-12-02T22:26:07.489Z,98879.53
2017-12-02T22:28:34.998Z,98875.33
2017-12-02T22:31:02.607Z,98877.67
2017-12-02T22:33:30.149Z,98875.99
2017-12-02T22:35:57.649Z,98867.95
2017-12-02T22:38:25.163Z,98874.44
2017-12-02T22:40:52.669Z,98883.19
2017-12-02T22:43:20.195Z,98882.88
2017-12-02T22:45:47.726Z,98883.38
2017-12-02T22:48:15.368Z,98881.94
2017-12-02T22:50:42.881Z,98877.15
2017-12-02T22:53:10.386Z,98882.35
2017-12-02T22:55:37.932Z,98878.02
2017-12-02T22:58:05.431Z,98879.72
2017-12-02T23:00:38.641Z,98881.69
2017-12-02T23:03:06.146Z,98879.72
2017-12-02T23:05:33.675Z,98885.77
2017-12-02T23:08:01.173Z,98883.78
2017-12-02T23:10:28.701Z,98892.03
2017-12-02T23:12:56.229Z,98892.16
2017-12-02T23:15:23.768Z,98896.65
2017-12-02T23:17:51.258Z,98900.48
2017-12-02T23:20:18.777Z,98899.83
2017-12-02T23:22:46.274Z,98894.82
2017-12-02T23:25:13.763Z,98902.96
2017-12-02T23:27:41.292Z,98897.54
2017-12-02T23:30:08.808Z,98900.48
2017-12-02T23:32:36.322Z,98897.83
2017-12-02T23:35:03.837Z,98903.24
2017-12-02T23:37:31.361Z,98903.66
2017-12-02T23:39:58.911Z,98900.87
2017-12-02T23:42:26.466Z,98893.05
2017-12-02T23:44:53.996Z,98891.09
2017-12-02T23:47:21.489Z,98891.47
2017-12-02T23:49:48.991Z,98887.34
2017-12-02T23:52:16.501Z,98881.78
2017-12-02T23:54:44.023Z,98879.33
2017-12-02T23:57:11.521Z,98874.84
2017-12-02T23:59:39.069Z,98874.27
